createdAt,value
2023-03-10T00:02:13.577Z,15.89
2023-03-10T00:07:15.713Z,16.01
2023-03-10T00:12:18.606Z,16.18
2023-03-10T00:17:20.810Z,16.21
2023-03-10T00:22:23.151Z,16.17
2023-03-10T00:27:25.309Z,16.32
2023-03-10T00:32:28.498Z,16.20
2023-03-10T00:37:30.682Z,16.12
2023-03-10T00:42:32.826Z,16.08
2023-03-10T00:47:35.013Z,16.03
2023-03-10T00:52:37.133Z,15.85
2023-03-10T00:57:39.301Z,15.79
2023-03-10T01:02:41.444Z,15.09
2023-03-10T01:07:43.693Z,14.24
2023-03-10T01:12:45.850Z,13.93
2023-03-10T01:17:47.971Z,14.07
2023-03-10T01:22:50.121Z,13.88
2023-03-10T01:27:52.387Z,14.12
2023-03-10T01:32:55.533Z,14.16
2023-03-10T01:37:58.469Z,14.31
2023-03-10T01:43:22.356Z,14.64
2023-03-10T01:48:24.899Z,14.39
2023-03-10T01:53:28.840Z,14.60
2023-03-10T01:58:40.901Z,14.74
2023-03-10T02:03:55.337Z,15.08
2023-03-10T02:09:00.268Z,15.29
2023-03-10T02:14:06.604Z,14.81
2023-03-10T02:19:23.852Z,14.47
2023-03-10T02:24:25.918Z,14.18
2023-03-10T02:29:42.633Z,14.01
2023-03-10T02:34:47.930Z,13.78
2023-03-10T02:39:50.322Z,13.92
2023-03-10T02:44:54.416Z,14.64
2023-03-10T02:49:57.335Z,15.10
2023-03-10T02:54:59.429Z,15.08
2023-03-10T03:00:02.685Z,14.90
2023-03-10T03:05:05.420Z,15.04
2023-03-10T03:10:07.912Z,15.42
2023-03-10T03:15:10.371Z,15.47
2023-03-10T03:20:14.792Z,15.63
2023-03-10T03:25:19.437Z,15.73
2023-03-10T03:30:26.897Z,15.79
2023-03-10T03:35:32.650Z,15.92
2023-03-10T03:40:37.202Z,15.75
2023-03-10T03:45:39.510Z,15.70
2023-03-10T03:50:41.698Z,15.57
2023-03-10T03:55:43.832Z,15.56
2023-03-10T04:00:46.008Z,15.50
2023-03-10T04:05:48.141Z,15.40
2023-03-10T04:10:54.473Z,15.35
2023-03-10T04:16:00.309Z,15.27
2023-03-10T04:21:03.182Z,15.29
2023-03-10T04:26:09.719Z,15.39
2023-03-10T04:31:16.206Z,15.35
2023-03-10T04:36:19.339Z,15.26
2023-03-10T04:41:21.843Z,15.22
2023-03-10T04:46:24.104Z,15.23
2023-03-10T04:51:26.383Z,15.13
2023-03-10T04:56:28.900Z,15.24
2023-03-10T05:01:33.504Z,15.15
2023-03-10T05:06:35.700Z,15.03
2023-03-10T05:11:38.005Z,15.20
2023-03-10T05:16:40.311Z,15.13
2023-03-10T05:21:42.547Z,15.01
2023-03-10T05:26:44.682Z,14.75
2023-03-10T05:31:48.478Z,14.41
2023-03-10T05:36:50.693Z,14.55
2023-03-10T05:41:52.870Z,14.91
2023-03-10T05:46:55.166Z,14.70
2023-03-10T05:51:58.314Z,14.54
2023-03-10T05:57:00.429Z,14.42
2023-03-10T06:02:02.593Z,14.63
2023-03-10T06:07:05.310Z,14.74
2023-03-10T06:12:07.841Z,14.67
2023-03-10T06:17:11.237Z,14.80
2023-03-10T06:22:13.374Z,14.82
2023-03-10T06:27:15.584Z,14.90
2023-03-10T06:32:17.827Z,15.02
2023-03-10T06:37:20.976Z,15.18
2023-03-10T06:42:23.167Z,15.13
2023-03-10T06:47:25.445Z,14.92
2023-03-10T06:52:27.742Z,15.28
2023-03-10T06:57:29.890Z,15.46
2023-03-10T07:02:32.257Z,15.72
2023-03-10T07:07:35.018Z,15.83
2023-03-10T07:12:37.208Z,15.99
2023-03-10T07:17:39.315Z,16.13
2023-03-10T07:22:41.980Z,16.19
2023-03-10T07:27:44.122Z,16.41
2023-03-10T07:32:46.363Z,16.60
2023-03-10T07:37:48.555Z,16.64
2023-03-10T07:42:55.069Z,16.72
2023-03-10T07:47:57.400Z,16.95
2023-03-10T07:52:59.956Z,17.16
2023-03-10T07:58:02.145Z,17.11
2023-03-10T08:03:04.363Z,17.07
2023-03-10T08:08:06.849Z,17.23
2023-03-10T08:13:09.060Z,17.23
2023-03-10T08:18:11.290Z,17.46
2023-03-10T08:23:15.169Z,17.49
2023-03-10T08:28:18.727Z,17.49
2023-03-10T08:33:22.450Z,17.67
2023-03-10T08:38:24.794Z,17.86
2023-03-10T08:43:27.874Z,18.11
2023-03-10T08:48:30.141Z,18.11
2023-03-10T08:53:34.171Z,18.07
2023-03-10T08:58:59.295Z,18.26
2023-03-10T09:04:05.268Z,18.27
2023-03-10T09:09:10.465Z,18.16
2023-03-10T09:14:16.404Z,18.32
2023-03-10T09:19:21.970Z,18.37
2023-03-10T09:24:25.329Z,18.34
2023-03-10T09:29:42.267Z,18.32
2023-03-10T09:34:46.385Z,18.37
2023-03-10T09:39:48.632Z,18.46
2023-03-10T09:45:24.364Z,18.30
2023-03-10T09:50:45.534Z,18.39
2023-03-10T09:55:49.120Z,18.37
2023-03-10T10:00:51.387Z,18.41
2023-03-10T10:05:56.326Z,18.55
2023-03-10T10:11:00.343Z,18.52
2023-03-10T10:16:33.638Z,18.65
2023-03-10T10:21:48.193Z,18.77
2023-03-10T10:26:50.592Z,18.82
2023-03-10T10:32:14.723Z,19.09
2023-03-10T10:37:37.199Z,19.33
2023-03-10T10:42:54.980Z,19.62
2023-03-10T10:47:57.259Z,19.64
2023-03-10T10:53:24.748Z,19.67
2023-03-10T10:58:38.861Z,19.67
2023-03-10T11:03:43.758Z,19.80
2023-03-10T11:14:13.469Z,20.19
2023-03-10T11:19:22.826Z,20.18
2023-03-10T11:24:54.459Z,19.63
2023-03-10T11:30:32.675Z,20.06
2023-03-10T11:35:46.662Z,20.14
2023-03-10T11:41:00.058Z,20.23
2023-03-10T11:46:09.313Z,20.31
2023-03-10T11:51:34.647Z,20.42
2023-03-10T11:56:38.609Z,20.61
2023-03-10T12:01:59.219Z,20.57
2023-03-10T12:07:04.923Z,20.54
2023-03-10T12:12:08.677Z,20.29
2023-03-10T12:17:15.872Z,20.26
2023-03-10T12:22:37.645Z,20.40
2023-03-10T12:28:22.697Z,20.36
2023-03-10T12:33:31.549Z,20.37
2023-03-10T12:38:43.008Z,20.45
2023-03-10T12:43:47.921Z,20.45
2023-03-10T12:49:07.033Z,20.53
2023-03-10T12:54:20.998Z,20.42
2023-03-10T12:59:50.620Z,20.28
2023-03-10T13:05:05.637Z,20.45
2023-03-10T13:10:19.304Z,20.51
2023-03-10T13:15:28.001Z,20.84
2023-03-10T13:20:30.791Z,20.85
2023-03-10T13:25:37.080Z,20.88
2023-03-10T13:30:39.515Z,20.81
2023-03-10T13:35:42.456Z,21.02
2023-03-10T13:40:48.405Z,21.35
2023-03-10T13:46:01.018Z,21.57
2023-03-10T13:51:09.406Z,21.65
2023-03-10T13:56:27.565Z,21.58
2023-03-10T14:01:34.956Z,21.70
2023-03-10T14:06:38.637Z,21.93
2023-03-10T14:11:44.950Z,22.29
2023-03-10T14:16:53.874Z,22.29
2023-03-10T14:22:01.648Z,22.01
2023-03-10T14:27:04.069Z,22.16
2023-03-10T14:32:08.441Z,22.18
2023-03-10T14:37:10.571Z,22.24
2023-03-10T14:42:26.466Z,22.48
2023-03-10T14:47:28.869Z,23.02
2023-03-10T14:52:31.281Z,23.06
2023-03-10T14:57:33.479Z,22.71
2023-03-10T15:02:35.697Z,22.21
2023-03-10T15:07:37.897Z,21.71
2023-03-10T15:12:44.096Z,21.03
2023-03-10T15:17:46.722Z,20.61
2023-03-10T15:22:49.934Z,20.69
2023-03-10T15:27:53.298Z,21.36
2023-03-10T15:32:55.767Z,21.91
2023-03-10T15:37:58.897Z,22.43
2023-03-10T15:43:01.794Z,22.12
2023-03-10T15:48:04.165Z,20.77
2023-03-10T15:53:06.365Z,20.79
2023-03-10T15:58:10.502Z,20.30
2023-03-10T16:03:18.236Z,19.71
2023-03-10T16:08:20.732Z,19.44
2023-03-10T16:13:24.326Z,19.30
2023-03-10T16:18:27.605Z,18.98
2023-03-10T16:23:32.186Z,19.07
2023-03-10T16:28:35.626Z,18.78
2023-03-10T16:33:38.099Z,18.52
2023-03-10T16:38:40.660Z,18.54
2023-03-10T16:43:43.292Z,18.59
2023-03-10T16:48:47.865Z,18.33
2023-03-10T16:53:52.778Z,18.48
2023-03-10T16:58:56.799Z,18.36
2023-03-10T17:03:59.686Z,17.80
2023-03-10T17:09:05.952Z,17.82
2023-03-10T17:14:12.761Z,17.69
2023-03-10T17:19:20.524Z,17.76
2023-03-10T17:24:23.796Z,17.66
2023-03-10T17:29:26.010Z,17.37
2023-03-10T17:34:31.356Z,17.29
2023-03-10T17:39:35.489Z,17.66
2023-03-10T17:44:38.231Z,17.60
2023-03-10T17:49:42.189Z,17.46
2023-03-10T17:54:45.376Z,17.15
2023-03-10T17:59:47.583Z,17.47
2023-03-10T18:04:50.126Z,17.83
2023-03-10T18:09:52.309Z,17.82
2023-03-10T18:14:54.667Z,17.89
2023-03-10T18:19:57.092Z,17.72
2023-03-10T18:25:02.000Z,17.60
2023-03-10T18:30:05.377Z,17.61
2023-03-10T18:35:09.096Z,17.22
2023-03-10T18:40:18.756Z,17.36
2023-03-10T18:45:20.873Z,17.48
2023-03-10T18:50:23.092Z,17.70
2023-03-10T18:55:25.320Z,17.43
2023-03-10T19:00:27.938Z,16.91
2023-03-10T19:05:30.263Z,17.29
2023-03-10T19:10:32.466Z,16.81
2023-03-10T19:15:35.168Z,16.20
2023-03-10T19:20:38.102Z,15.83
2023-03-10T19:25:40.331Z,15.96
2023-03-10T19:30:45.398Z,16.03
2023-03-10T19:35:47.768Z,16.18
2023-03-10T19:40:55.246Z,16.87
2023-03-10T19:46:02.042Z,17.27
2023-03-10T19:51:06.106Z,17.64
2023-03-10T19:56:09.205Z,17.63
2023-03-10T20:01:21.050Z,17.49
2023-03-10T20:06:23.827Z,16.77
2023-03-10T20:11:26.259Z,17.18
2023-03-10T20:16:28.744Z,16.91
2023-03-10T20:21:31.110Z,17.02
2023-03-10T20:26:33.501Z,17.00
2023-03-10T20:31:37.383Z,16.97
2023-03-10T20:36:40.120Z,17.24
2023-03-10T20:41:45.173Z,17.34
2023-03-10T20:46:47.373Z,17.16
2023-03-10T20:51:49.607Z,17.10
2023-03-10T20:56:51.965Z,16.40
2023-03-10T21:01:54.210Z,16.33
2023-03-10T21:06:56.412Z,16.04
2023-03-10T21:11:58.574Z,15.01
2023-03-10T21:17:01.966Z,15.22
2023-03-10T21:22:05.107Z,14.91
2023-03-10T21:27:09.571Z,15.43
2023-03-10T21:32:12.663Z,16.03
2023-03-10T21:37:15.719Z,16.25
2023-03-10T21:42:17.856Z,16.32
2023-03-10T21:47:20.836Z,16.29
2023-03-10T21:52:23.109Z,16.22
2023-03-10T21:57:26.069Z,16.12
2023-03-10T22:02:30.834Z,16.05
2023-03-10T22:07:33.847Z,15.77
2023-03-10T22:12:37.948Z,15.82
2023-03-10T22:17:40.179Z,15.34
2023-03-10T22:22:42.375Z,14.49
2023-03-10T22:28:07.222Z,14.34
2023-03-10T22:33:09.637Z,14.54
2023-03-10T22:38:13.967Z,14.70
2023-03-10T22:43:17.221Z,14.82
2023-03-10T22:48:20.179Z,14.63
2023-03-10T22:53:22.387Z,14.85
2023-03-10T22:58:24.587Z,14.42
2023-03-10T23:03:27.044Z,14.98
2023-03-10T23:08:30.174Z,15.46
2023-03-10T23:13:32.274Z,15.86
2023-03-10T23:18:34.655Z,15.82
2023-03-10T23:23:36.984Z,15.88
2023-03-10T23:28:40.059Z,16.16
2023-03-10T23:33:42.955Z,16.27
2023-03-10T23:38:45.257Z,16.17
2023-03-10T23:43:47.524Z,16.13
2023-03-10T23:48:50.040Z,16.18
2023-03-10T23:53:53.902Z,16.16
2023-03-10T23:58:59.200Z,16.38
